NCAR-RAP Real-Time Weather Data

Output produced by METARs form (26 May 2022  09:00 UTC)
found at http://weather.rap.ucar.edu/surface/
 
KJAX 260756Z 15003KT 10SM FEW016 BKN250 23/21 A3009 RMK AO2 SLP190 T02280211
KJAX 260656Z 16004KT 10SM FEW020 BKN250 23/22 A3010 RMK AO2 SLP192 T02330217
KJAX 260556Z 15007KT 10SM FEW020 BKN250 24/21 A3010 RMK AO2 SLP194 T02390211 10261 20239 58006
KJAX 260456Z 15008KT 10SM FEW019 BKN250 24/22 A3012 RMK AO2 SLP199 T02440217 403000206
KJAX 260356Z 15009KT 10SM FEW019 BKN250 24/22 A3012 RMK AO2 SLP201 T02440217
KJAX 260256Z 13007KT 10SM FEW030 BKN250 24/22 A3012 RMK AO2 SLP200 T02440217 53011
KJAX 260156Z 13007KT 10SM BKN250 25/21 A3010 RMK AO2 SLP194 T02500211
KJAX 260056Z 12007KT 10SM FEW030 FEW200 BKN250 26/22 A3010 RMK AO2 SLP192 T02560217
KJAX 252356Z 12009KT 10SM FEW033 FEW200 BKN250 26/21 A3009 RMK AO2 SLP189 CB DSNT W T02610206 10294 20261 53008
KJAX 252256Z 11011G19KT 10SM FEW033 FEW110 BKN250 27/20 A3007 RMK AO2 SLP184 CB DSNT SW T02670200
KJAX 252156Z 12010KT 10SM FEW035 BKN250 28/21 A3007 RMK AO2 SLP182 CB DSNT SW T02780211
KJAX 252056Z 11009KT 10SM FEW039 BKN250 29/21 A3006 RMK AO2 SLP181 T02890206 56014
KJAX 251956Z 12015G24KT 10SM SCT035 BKN250 29/22 A3007 RMK AO2 SLP182 T02940217
KJAX 251856Z 10014G21KT 10SM SCT033 BKN250 29/22 A3008 RMK AO2 SLP185 T02940217
KJAX 251756Z 12016G23KT 10SM SCT038 BKN250 29/21 A3010 RMK AO2 SLP195 T02890211 10300 20239 58007
KJAX 251656Z 11010G20KT 10SM SCT036 BKN250 29/22 A3012 RMK AO2 SLP201 T02940222
KJAX 251556Z 11012G18KT 10SM SCT033 BKN250 29/21 A3013 RMK AO2 SLP203 T02890211
KJAX 251456Z 14012KT 10SM SCT027 BKN250 29/21 A3013 RMK AO2 SLP202 T02890211 51008 $
KJAX 251449Z 14012KT 10SM SCT027 BKN250 28/21 A3013 RMK AO2 T02830211 $
KJAX 251356Z 16011G18KT 10SM BKN025 BKN250 27/22 A3012 RMK AO2 SLP201 T02670217 $
KJAX 251338Z 12011KT 10SM BKN025 BKN250 27/22 A3013 RMK AO2 T02670217 $
KJAX 251256Z 13006KT 10SM SCT017 BKN100 BKN250 26/23 A3012 RMK AO2 SLP198 T02560228
KJAX 251156Z 08004KT 10SM FEW022 SCT100 BKN250 24/22 A3010 RMK AO2 SLP194 T02390222 10239 20206 51013
KJAX 251056Z 08003KT 10SM FEW020 SCT200 BKN250 21/21 A3009 RMK AO2 SLP190 T02110206
KJAX 250956Z 06004KT 10SM SCT250 21/20 A3008 RMK AO2 SLP185 T02110200
KJAX 250856Z 12004KT 10SM FEW250 22/21 A3007 RMK AO2 SLP181 T02220206 55000
KJAX 250756Z 13005KT 10SM SCT250 23/21 A3005 RMK AO2 SLP177 T02280211
KJAX 250656Z 13005KT 10SM BKN250 23/21 A3006 RMK AO2 SLP179 T02280211
KJAX 250556Z 14007KT 10SM BKN250 23/22 A3007 RMK AO2 SLP181 T02330217 10267 20228 58006
KJAX 250456Z 15006KT 10SM BKN250 23/21 A3008 RMK AO2 SLP185 T02330211 403110211
KJAX 250356Z 14007KT 10SM BKN250 24/21 A3008 RMK AO2 SLP186 T02390211
KJAX 250256Z 14007KT 10SM BKN250 24/21 A3008 RMK AO2 SLP187 T02440211 52019
KJAX 250156Z 14009KT 10SM BKN250 25/21 A3006 RMK AO2 SLP180 T02500211
KJAX 250056Z 13008KT 10SM FEW040 FEW100 BKN250 26/21 A3005 RMK AO2 SLP176 T02560211
KJAX 242356Z 12010KT 10SM FEW040 FEW100 BKN250 27/21 A3003 RMK AO2 SLP169 T02670206 10311 20267 53003
KJAX 242256Z 12009KT 10SM FEW040 BKN250 27/22 A3002 RMK AO2 SLP164 T02720217
KJAX 242156Z 11011KT 10SM FEW045 BKN250 29/22 A3001 RMK AO2 SLP163 T02890217
KJAX 242056Z 14012KT 10SM FEW045 BKN250 30/22 A3002 RMK AO2 SLP165 T03000217 56016
KJAX 241956Z 11014KT 10SM FEW040 FEW120 BKN250 31/22 A3002 RMK AO2 SLP167 T03060217
KJAX 241856Z 10010G18KT 10SM SCT040 SCT120 BKN250 30/22 A3005 RMK AO2 SLP176 T03000217
KJAX 241756Z 12007KT 10SM SCT038 BKN170 BKN250 31/22 A3007 RMK AO2 SLP181 T03110222 10311 20250 58006 $
KJAX 241656Z VRB06KT 10SM SCT036 BKN170 BKN250 31/22 A3008 RMK AO2 SLP186 T03060217 $
KJAX 241556Z 17007KT 10SM FEW030 SCT170 BKN250 29/21 A3008 RMK AO2 SLP186 T02940206 $
KJAX 241456Z 20005KT 10SM FEW023 BKN170 BKN250 28/22 A3008 RMK AO2 SLP187 T02780217 51012 $
KJAX 241356Z 20006KT 10SM SCT017 BKN170 BKN250 27/22 A3008 RMK AO2 SLP187 T02670222
KJAX 241256Z 16007KT 10SM FEW011 SCT190 BKN250 26/23 A3006 RMK AO2 SLP178 T02610228
KJAX 241156Z 13008KT 10SM FEW020 SCT190 BKN250 25/23 A3005 RMK AO2 SLP176 T02500233 10250 20211 53011
KJAX 241056Z 14005KT 10SM FEW020 BKN190 BKN250 23/22 A3004 RMK AO2 SLP171 T02280222
KJAX 240956Z 14004KT 10SM FEW020 SCT250 22/22 A3002 RMK AO2 SLP165 T02220217